Time;durP1;ratioP1;P1;durP2;ratioP2;P2;SDS_P1;SDS_P2;PMS_P1;PMS_P2;Temp;Humidity;BMP_temperature;BMP_pressure;BME280_temperature;BME280_humidity;BME280_pressure;Samples;Min_cycle;Max_cycle;Signal;HPM_P1;HPM_P2
2022/05/27 00:00:37;;;;;;;7.60;2.00;;;9.70;99.90;;;;;;5015391;28;20738;-82
2022/05/27 00:03:05;;;;;;;9.20;2.50;;;9.60;99.90;;;;;;5010689;28;20924;-84
2022/05/27 00:05:32;;;;;;;8.40;1.87;;;9.80;99.90;;;;;;5021458;28;20907;-84
2022/05/27 00:08:01;;;;;;;5.35;1.70;;;9.80;99.90;;;;;;5012935;28;20405;-83
2022/05/27 00:10:29;;;;;;;6.32;2.00;;;9.70;99.90;;;;;;5016894;28;20436;-83
2022/05/27 00:12:56;;;;;;;5.85;2.03;;;9.70;99.90;;;;;;5016983;28;20408;-83
2022/05/27 00:15:24;;;;;;;8.43;1.90;;;9.70;99.90;;;;;;5018496;28;20395;-83
2022/05/27 00:17:52;;;;;;;9.73;2.10;;;9.60;99.90;;;;;;5012820;28;20403;-81
2022/05/27 00:20:20;;;;;;;6.55;1.98;;;9.60;99.90;;;;;;5011611;28;20944;-83
2022/05/27 00:22:48;;;;;;;8.70;2.20;;;9.60;99.90;;;;;;5014447;28;20468;-82
2022/05/27 00:25:16;;;;;;;12.68;2.53;;;9.60;99.90;;;;;;5013199;28;20488;-82
2022/05/27 00:27:43;;;;;;;9.88;2.38;;;9.60;99.90;;;;;;5008454;28;20727;-83
2022/05/27 00:30:11;;;;;;;7.38;2.13;;;9.50;99.90;;;;;;5012407;28;20903;-82
2022/05/27 00:32:39;;;;;;;7.87;2.00;;;9.50;99.90;;;;;;5013673;28;20912;-83
2022/05/27 00:35:08;;;;;;;9.00;2.35;;;9.50;99.90;;;;;;5019312;28;20403;-83
2022/05/27 00:37:39;;;;;;;10.05;2.30;;;9.50;99.90;;;;;;5013639;28;20408;-83
2022/05/27 00:40:09;;;;;;;9.85;2.22;;;9.50;99.90;;;;;;5013043;28;20409;-83
2022/05/27 00:42:41;;;;;;;9.95;2.50;;;9.60;99.90;;;;;;5010694;28;20448;-82
2022/05/27 00:45:25;;;;;;;6.63;2.25;;;9.60;99.90;;;;;;4998396;28;20747;-83
2022/05/27 00:47:57;;;;;;;8.25;2.30;;;9.60;99.90;;;;;;5015971;28;20952;-83
2022/05/27 00:50:30;;;;;;;10.70;2.40;;;9.60;99.90;;;;;;5020397;28;20485;-83
2022/05/27 00:52:59;;;;;;;9.95;2.22;;;9.50;99.90;;;;;;5013682;28;20493;-83
2022/05/27 00:55:31;;;;;;;10.00;2.35;;;9.50;99.90;;;;;;5023398;28;20425;-83
2022/05/27 00:58:29;;;;;;;8.70;2.58;;;9.50;99.90;;;;;;5022243;28;20462;-81
2022/05/27 01:00:57;;;;;;;8.20;2.28;;;9.50;99.90;;;;;;5013447;28;20435;-82
2022/05/27 01:03:27;;;;;;;8.98;2.00;;;9.50;99.90;;;;;;5003946;28;20821;-83
2022/05/27 01:05:55;;;;;;;9.20;2.67;;;9.50;99.90;;;;;;5033143;28;20407;-83
2022/05/27 01:08:26;;;;;;;9.95;2.40;;;9.50;99.90;;;;;;5018224;28;20435;-84
2022/05/27 01:11:16;;;;;;;8.63;2.60;;;9.50;99.90;;;;;;5021324;28;20403;-82
2022/05/27 01:13:59;;;;;;;10.68;2.25;;;9.50;99.90;;;;;;5021782;28;20417;-83
2022/05/27 01:17:00;;;;;;;7.20;2.00;;;9.60;99.90;;;;;;5017366;28;20947;-83
2022/05/27 01:22:57;;;;;;;6.10;1.60;;;9.50;99.90;;;;;;5021569;28;20409;-83
2022/05/27 01:25:49;;;;;;;4.82;1.30;;;9.50;99.90;;;;;;5020138;28;20889;-84
2022/05/27 01:28:44;;;;;;;6.47;1.50;;;9.50;99.90;;;;;;5021231;28;20438;-82
2022/05/27 01:31:22;;;;;;;5.45;1.73;;;9.50;99.90;;;;;;5030335;28;20411;-83
2022/05/27 01:34:31;;;;;;;7.07;1.45;;;9.50;99.90;;;;;;5021285;28;20430;-83
2022/05/27 01:37:17;;;;;;;4.20;1.70;;;9.50;99.90;;;;;;5080994;28;20527;-84
2022/05/27 01:39:48;;;;;;;4.45;1.10;;;9.50;99.90;;;;;;5018517;28;20414;-84
2022/05/27 01:42:34;;;;;;;5.13;1.25;;;9.40;99.90;;;;;;5018868;28;20467;-83
2022/05/27 01:45:10;;;;;;;5.68;1.50;;;9.40;99.90;;;;;;5019392;28;20391;-83
2022/05/27 01:48:01;;;;;;;5.35;1.58;;;9.40;99.90;;;;;;5018051;28;20881;-84
2022/05/27 01:50:44;;;;;;;5.03;1.30;;;9.40;99.90;;;;;;5022658;28;20394;-84
2022/05/27 01:53:35;;;;;;;5.27;1.43;;;9.40;99.90;;;;;;5025701;28;20403;-82
2022/05/27 01:56:27;;;;;;;7.18;1.45;;;9.40;99.90;;;;;;5021494;28;20402;-83
2022/05/27 01:59:30;;;;;;;4.72;1.50;;;9.40;99.90;;;;;;5022199;28;20399;-83
2022/05/27 02:02:12;;;;;;;5.17;1.27;;;9.40;99.90;;;;;;5027076;28;20735;-82
2022/05/27 02:05:18;;;;;;;5.38;1.55;;;9.50;99.90;;;;;;5023208;28;20456;-83
2022/05/27 02:07:52;;;;;;;7.57;1.83;;;9.40;99.90;;;;;;5014192;28;20889;-84
2022/05/27 02:10:54;;;;;;;5.97;1.40;;;9.40;99.90;;;;;;5021255;28;20403;-83
2022/05/27 02:13:32;;;;;;;4.70;1.60;;;9.50;99.90;;;;;;5035502;28;20494;-82
2022/05/27 02:16:01;;;;;;;6.85;1.70;;;9.40;99.90;;;;;;5027979;28;20407;-83
2022/05/27 02:18:56;;;;;;;6.85;1.70;;;9.40;99.90;;;;;;5021290;28;20500;-83
2022/05/27 02:21:42;;;;;;;6.38;1.70;;;9.50;99.90;;;;;;5018479;28;20474;-83
2022/05/27 02:24:21;;;;;;;6.80;1.60;;;9.50;99.90;;;;;;5012258;28;20747;-83
2022/05/27 02:26:55;;;;;;;6.82;1.60;;;9.50;99.90;;;;;;5018759;28;20498;-83
2022/05/27 02:29:28;;;;;;;7.93;1.60;;;9.50;99.90;;;;;;5031951;28;20394;-82
2022/05/27 02:32:09;;;;;;;7.40;1.73;;;9.50;99.90;;;;;;5020267;28;20379;-82
2022/05/27 02:37:45;;;;;;;8.07;1.75;;;9.40;99.90;;;;;;5011381;28;20384;-83
2022/05/27 02:40:17;;;;;;;6.47;1.48;;;9.40;99.90;;;;;;5013643;28;20407;-83
2022/05/27 02:42:52;;;;;;;6.50;1.40;;;9.40;99.90;;;;;;5019145;28;20407;-83
2022/05/27 02:46:05;;;;;;;8.63;1.58;;;9.30;99.90;;;;;;5002588;28;20423;-83
2022/05/27 02:48:48;;;;;;;6.07;1.40;;;9.30;99.90;;;;;;5029716;28;20410;-83
2022/05/27 02:51:25;;;;;;;5.18;1.50;;;9.30;99.90;;;;;;5046533;28;20553;-82
2022/05/27 02:54:05;;;;;;;5.55;1.23;;;9.30;99.90;;;;;;5020135;28;20396;-81
2022/05/27 02:56:46;;;;;;;9.60;1.90;;;9.30;99.90;;;;;;5015412;28;20425;-83
2022/05/27 02:59:17;;;;;;;4.82;1.40;;;9.30;99.90;;;;;;5014840;28;20394;-84
2022/05/27 03:01:46;;;;;;;5.18;1.40;;;9.30;99.90;;;;;;5021082;28;20393;-83
2022/05/27 03:04:20;;;;;;;5.75;1.60;;;9.30;99.90;;;;;;5017287;28;20893;-84
2022/05/27 03:07:14;;;;;;;8.80;1.77;;;9.30;99.90;;;;;;5017167;28;20404;-83
2022/05/27 03:09:53;;;;;;;6.60;1.60;;;9.30;99.90;;;;;;5018347;28;20418;-83
2022/05/27 03:12:36;;;;;;;4.93;1.40;;;9.20;99.90;;;;;;5019093;28;20403;-83
2022/05/27 03:15:31;;;;;;;7.47;1.50;;;9.30;99.90;;;;;;5019217;28;20403;-84
2022/05/27 03:18:19;;;;;;;6.82;1.40;;;9.20;99.90;;;;;;5008855;28;20954;-82
2022/05/27 03:20:49;;;;;;;6.07;1.38;;;9.20;99.90;;;;;;5019635;28;20383;-84
2022/05/27 03:23:38;;;;;;;4.00;1.33;;;9.20;99.90;;;;;;5020833;28;20433;-83
2022/05/27 03:26:24;;;;;;;6.18;1.63;;;9.30;99.90;;;;;;5017234;28;20458;-83
2022/05/27 03:29:19;;;;;;;5.00;1.10;;;9.20;99.90;;;;;;5018627;28;20972;-83
2022/05/27 03:31:59;;;;;;;5.57;1.40;;;9.30;99.90;;;;;;5012941;28;20399;-83
2022/05/27 03:34:48;;;;;;;4.87;1.30;;;9.20;99.90;;;;;;5014842;28;20449;-83
2022/05/27 03:37:36;;;;;;;4.87;1.27;;;9.20;99.90;;;;;;5017678;28;20434;-83
2022/05/27 03:40:03;;;;;;;6.35;1.30;;;9.20;99.90;;;;;;5012820;28;20456;-83
2022/05/27 03:42:32;;;;;;;4.05;1.30;;;9.20;99.90;;;;;;5021937;28;20406;-84
2022/05/27 03:45:13;;;;;;;6.00;1.35;;;9.30;99.90;;;;;;5016122;28;20479;-84
2022/05/27 03:47:42;;;;;;;6.05;1.60;;;9.20;99.90;;;;;;5016334;28;20557;-83
2022/05/27 03:50:14;;;;;;;7.03;1.42;;;9.20;99.90;;;;;;5021040;28;20439;-83
2022/05/27 03:52:50;;;;;;;6.35;1.70;;;9.20;99.90;;;;;;5015058;28;20453;-84
2022/05/27 03:55:20;;;;;;;7.30;2.05;;;9.20;99.90;;;;;;5018937;28;20488;-84
2022/05/27 03:57:49;;;;;;;8.98;2.20;;;9.20;99.90;;;;;;5012199;28;20475;-83
2022/05/27 04:00:17;;;;;;;7.10;1.90;;;9.10;99.90;;;;;;5023600;28;20438;-83
2022/05/27 04:02:46;;;;;;;9.27;2.67;;;9.10;99.90;;;;;;5018009;28;20441;-83
2022/05/27 04:05:16;;;;;;;9.75;2.85;;;9.10;99.90;;;;;;5024830;28;20454;-84
2022/05/27 04:07:46;;;;;;;9.68;2.35;;;9.20;99.90;;;;;;5021002;28;20414;-82
2022/05/27 04:10:15;;;;;;;8.93;2.50;;;9.30;99.90;;;;;;5026386;28;20398;-81
2022/05/27 04:12:43;;;;;;;10.97;2.70;;;9.20;99.90;;;;;;5018183;28;20904;-81
2022/05/27 04:15:17;;;;;;;10.65;2.30;;;9.20;99.90;;;;;;5021843;28;20407;-84
2022/05/27 04:17:44;;;;;;;9.90;2.67;;;9.10;99.90;;;;;;5014153;28;20424;-83
2022/05/27 04:20:15;;;;;;;12.35;2.97;;;9.10;99.90;;;;;;5014696;28;20494;-83
2022/05/27 04:22:43;;;;;;;8.85;2.53;;;9.10;99.90;;;;;;5015110;28;20474;-84
2022/05/27 04:25:12;;;;;;;12.38;2.70;;;9.10;99.90;;;;;;5017901;28;20468;-82
2022/05/27 04:27:40;;;;;;;15.30;2.83;;;9.10;99.90;;;;;;5021507;28;20412;-83
2022/05/27 04:30:09;;;;;;;14.13;3.30;;;9.10;99.90;;;;;;5016307;28;20480;-83
2022/05/27 04:32:37;;;;;;;14.18;3.35;;;9.00;99.90;;;;;;5019163;28;20425;-81
2022/05/27 04:35:06;;;;;;;10.20;3.00;;;9.00;99.90;;;;;;5008984;28;20487;-83
2022/05/27 04:37:34;;;;;;;10.90;2.95;;;9.10;99.90;;;;;;5008694;28;20419;-82
2022/05/27 04:40:03;;;;;;;14.60;2.97;;;9.10;99.90;;;;;;5015962;28;20398;-82
2022/05/27 04:42:30;;;;;;;16.50;3.10;;;9.00;99.90;;;;;;5016306;28;20445;-83
2022/05/27 04:44:58;;;;;;;16.27;3.47;;;9.00;99.90;;;;;;5010225;28;20909;-82
2022/05/27 04:47:27;;;;;;;11.05;2.70;;;9.10;99.90;;;;;;5018687;28;20869;-84
2022/05/27 04:49:58;;;;;;;12.18;2.83;;;9.10;99.90;;;;;;5022482;28;20480;-83
2022/05/27 04:52:29;;;;;;;12.73;2.78;;;8.90;99.90;;;;;;5007128;28;20772;-83
2022/05/27 04:54:59;;;;;;;14.67;3.37;;;8.90;99.90;;;;;;5010017;28;20415;-82
2022/05/27 04:57:32;;;;;;;10.10;2.50;;;9.00;99.90;;;;;;5023946;28;20390;-83
2022/05/27 05:00:02;;;;;;;11.30;2.75;;;8.90;99.90;;;;;;5020489;28;20402;-82
2022/05/27 05:02:30;;;;;;;9.18;3.05;;;8.90;99.90;;;;;;5017451;28;20404;-83
2022/05/27 05:05:04;;;;;;;11.30;3.10;;;8.90;99.90;;;;;;5014568;28;20418;-83
2022/05/27 05:07:33;;;;;;;10.77;2.70;;;8.90;99.90;;;;;;5023652;28;20403;-82
2022/05/27 05:10:00;;;;;;;11.93;2.70;;;8.90;99.90;;;;;;5018684;28;20395;-81
2022/05/27 05:12:28;;;;;;;10.93;2.33;;;8.90;99.90;;;;;;5018315;28;20412;-82
2022/05/27 05:14:57;;;;;;;10.95;2.35;;;8.90;99.90;;;;;;5019848;28;20412;-83
2022/05/27 05:17:25;;;;;;;11.90;2.67;;;9.00;99.90;;;;;;5019583;28;20406;-83
2022/05/27 05:19:55;;;;;;;12.98;2.50;;;9.00;99.90;;;;;;5019268;28;20412;-83
2022/05/27 05:22:23;;;;;;;11.53;2.60;;;9.10;99.90;;;;;;5017649;28;20397;-84
2022/05/27 05:24:54;;;;;;;12.00;2.70;;;9.20;99.90;;;;;;5016989;28;20411;-84
2022/05/27 05:27:25;;;;;;;11.05;2.30;;;9.10;99.90;;;;;;5024159;28;20484;-84
2022/05/27 05:29:55;;;;;;;10.05;2.08;;;9.20;99.90;;;;;;5017609;28;20405;-83
2022/05/27 05:32:24;;;;;;;14.40;2.72;;;9.20;99.90;;;;;;5020184;28;20388;-83
2022/05/27 05:34:54;;;;;;;15.17;2.20;;;9.20;99.90;;;;;;5018409;28;20391;-83
2022/05/27 05:37:22;;;;;;;10.40;2.50;;;9.20;99.90;;;;;;5008492;28;20410;-81
2022/05/27 05:39:50;;;;;;;16.00;2.70;;;9.30;99.90;;;;;;5016602;28;20416;-85
2022/05/27 05:42:18;;;;;;;12.60;2.10;;;9.30;99.90;;;;;;5016650;28;20454;-83
2022/05/27 05:44:46;;;;;;;11.63;2.38;;;9.30;99.90;;;;;;5009149;28;20430;-84
2022/05/27 05:47:14;;;;;;;8.80;1.63;;;9.30;99.90;;;;;;5020472;28;20392;-84
2022/05/27 05:49:42;;;;;;;10.93;2.05;;;9.30;99.90;;;;;;5023638;28;20410;-84
2022/05/27 05:52:10;;;;;;;11.07;1.93;;;9.30;99.90;;;;;;5026505;27;20761;-84
2022/05/27 05:54:37;;;;;;;9.52;2.08;;;9.30;99.90;;;;;;5031017;27;20501;-85
2022/05/27 05:57:06;;;;;;;10.27;2.00;;;9.30;99.90;;;;;;5021268;28;20450;-84
2022/05/27 05:59:37;;;;;;;11.55;2.40;;;9.30;99.90;;;;;;5015027;28;20867;-84
2022/05/27 06:02:07;;;;;;;12.13;2.30;;;9.30;99.90;;;;;;5020193;28;20743;-84
2022/05/27 06:04:35;;;;;;;10.43;2.20;;;9.30;99.90;;;;;;5022016;28;20410;-84
2022/05/27 06:07:10;;;;;;;9.40;1.88;;;9.30;99.90;;;;;;5024332;28;20389;-84
2022/05/27 06:09:37;;;;;;;9.47;2.27;;;9.40;99.90;;;;;;5018277;28;20603;-85
2022/05/27 06:12:05;;;;;;;11.30;1.90;;;9.40;99.90;;;;;;5018849;28;20418;-85
2022/05/27 06:14:35;;;;;;;10.48;2.03;;;9.40;99.90;;;;;;5019565;28;20404;-84
2022/05/27 06:17:04;;;;;;;9.38;1.98;;;9.50;99.90;;;;;;5018886;28;20827;-83
2022/05/27 06:19:32;;;;;;;11.65;2.17;;;9.50;99.90;;;;;;5020806;28;20498;-83
2022/05/27 06:21:59;;;;;;;9.38;2.20;;;9.50;99.90;;;;;;5018941;28;20761;-83
2022/05/27 06:24:27;;;;;;;9.23;2.00;;;9.60;99.90;;;;;;5023132;27;20897;-85
2022/05/27 06:26:55;;;;;;;14.57;2.45;;;9.60;99.90;;;;;;5025475;28;20483;-84
2022/05/27 06:34:56;;;;;;;12.25;2.25;;;9.60;99.90;;;;;;5021095;28;20394;-84
2022/05/27 06:37:24;;;;;;;13.02;2.03;;;9.70;99.90;;;;;;5024148;27;20394;-84
2022/05/27 06:39:52;;;;;;;10.85;1.90;;;9.70;99.90;;;;;;5018167;28;20399;-85
2022/05/27 06:42:20;;;;;;;10.05;2.17;;;9.70;99.90;;;;;;5019588;28;20413;-85
2022/05/27 06:45:08;;;;;;;6.78;1.70;;;9.80;99.90;;;;;;5023870;28;20464;-85
2022/05/27 06:47:37;;;;;;;7.47;1.80;;;9.90;99.90;;;;;;5017868;28;20414;-84
2022/05/27 06:50:08;;;;;;;9.30;1.73;;;10.00;99.90;;;;;;5028704;28;20398;-85
2022/05/27 06:52:40;;;;;;;11.73;2.20;;;10.10;99.90;;;;;;5016645;28;20418;-84
2022/05/27 06:55:14;;;;;;;8.63;1.90;;;10.10;99.90;;;;;;5018536;28;20451;-83
2022/05/27 06:57:45;;;;;;;9.65;2.30;;;10.10;99.90;;;;;;5015023;28;20497;-85
2022/05/27 07:00:16;;;;;;;9.82;2.08;;;10.20;99.90;;;;;;5021750;28;20402;-86
2022/05/27 07:02:46;;;;;;;9.70;1.85;;;10.40;99.90;;;;;;5022154;28;20478;-85
2022/05/27 07:05:16;;;;;;;10.38;2.00;;;10.50;99.90;;;;;;5020788;28;20411;-84
2022/05/27 07:07:44;;;;;;;9.48;1.52;;;10.40;99.90;;;;;;5014520;28;20395;-83
2022/05/27 07:10:11;;;;;;;13.18;2.00;;;10.30;99.90;;;;;;5020073;28;20441;-84
2022/05/27 07:12:39;;;;;;;10.00;2.15;;;10.40;99.90;;;;;;5057669;27;20386;-84
2022/05/27 07:15:10;;;;;;;10.75;1.60;;;10.40;99.90;;;;;;5017281;28;20411;-84
2022/05/27 07:17:37;;;;;;;10.10;1.50;;;10.40;99.90;;;;;;5016227;28;20450;-84
2022/05/27 07:20:05;;;;;;;5.95;1.50;;;10.50;99.90;;;;;;5020061;28;20403;-85
2022/05/27 07:22:33;;;;;;;12.48;1.92;;;10.50;99.90;;;;;;5018782;28;20398;-83
2022/05/27 07:25:01;;;;;;;9.95;1.77;;;10.50;99.90;;;;;;5016040;28;20415;-85
2022/05/27 07:27:28;;;;;;;9.25;1.88;;;10.40;99.90;;;;;;5019135;28;20410;-85
2022/05/27 07:29:56;;;;;;;11.27;1.90;;;10.40;99.90;;;;;;5013644;28;20427;-85
2022/05/27 07:32:23;;;;;;;10.80;2.10;;;10.30;99.90;;;;;;5022155;28;20489;-86
2022/05/27 07:34:51;;;;;;;10.45;1.67;;;10.30;99.90;;;;;;4999197;28;20393;-85
2022/05/27 07:37:19;;;;;;;9.23;1.70;;;10.30;99.90;;;;;;5015013;28;20391;-83
2022/05/27 07:39:47;;;;;;;8.02;1.60;;;10.30;99.90;;;;;;5025008;28;20489;-85
2022/05/27 07:42:15;;;;;;;9.10;1.77;;;10.30;99.90;;;;;;5015876;28;20407;-85
2022/05/27 07:44:42;;;;;;;10.13;1.75;;;10.40;99.90;;;;;;5015509;28;20426;-86
2022/05/27 07:47:10;;;;;;;9.63;2.20;;;10.40;99.90;;;;;;5017273;28;20411;-85
2022/05/27 07:49:38;;;;;;;10.98;1.48;;;10.40;99.90;;;;;;5021484;28;20471;-85
2022/05/27 07:52:06;;;;;;;8.23;1.70;;;10.50;99.90;;;;;;5015195;28;20727;-85
2022/05/27 07:54:35;;;;;;;8.32;1.52;;;10.60;99.90;;;;;;5016376;28;20415;-86
2022/05/27 07:57:23;;;;;;;9.23;1.80;;;10.60;99.90;;;;;;5017807;28;20962;-85
2022/05/27 08:00:04;;;;;;;9.77;2.05;;;10.70;99.90;;;;;;5012815;28;20496;-85
2022/05/27 08:02:40;;;;;;;7.40;1.70;;;10.70;99.90;;;;;;5017957;28;20433;-86
2022/05/27 08:05:11;;;;;;;6.85;1.88;;;10.80;99.90;;;;;;5016364;28;20408;-85
2022/05/27 08:07:38;;;;;;;8.57;1.70;;;10.80;99.90;;;;;;5014780;28;20399;-84
2022/05/27 08:10:07;;;;;;;11.40;2.00;;;10.70;99.90;;;;;;5016943;28;20388;-85
2022/05/27 08:12:36;;;;;;;8.93;1.48;;;10.70;99.90;;;;;;5020234;28;20384;-84
2022/05/27 08:15:11;;;;;;;8.03;1.40;;;10.70;99.90;;;;;;5019208;28;20885;-84
2022/05/27 08:17:39;;;;;;;9.23;1.40;;;10.70;99.90;;;;;;5009193;28;20456;-84
2022/05/27 08:20:09;;;;;;;9.45;1.70;;;10.70;99.90;;;;;;5017608;28;20406;-85
2022/05/27 08:22:37;;;;;;;11.07;1.73;;;10.70;99.90;;;;;;5011084;28;20796;-85
2022/05/27 08:25:05;;;;;;;7.03;1.52;;;10.70;99.90;;;;;;5018200;28;20889;-85
2022/05/27 08:27:34;;;;;;;7.95;1.55;;;10.80;99.90;;;;;;5017176;28;20431;-83
2022/05/27 08:30:02;;;;;;;7.78;1.52;;;10.70;99.90;;;;;;5018811;28;20411;-85
2022/05/27 08:32:31;;;;;;;10.43;1.80;;;10.80;99.90;;;;;;5016480;28;20496;-83
2022/05/27 08:41:09;;;;;;;7.88;1.50;;;11.00;99.90;;;;;;5016510;28;20740;-85
2022/05/27 08:44:16;;;;;;;7.50;1.53;;;10.90;99.90;;;;;;5015697;28;20409;-85
2022/05/27 08:47:13;;;;;;;7.30;1.27;;;10.80;99.90;;;;;;5023882;28;20508;-85
2022/05/27 08:49:48;;;;;;;9.93;1.60;;;10.80;99.90;;;;;;5015634;28;20464;-84
2022/05/27 08:52:34;;;;;;;10.52;1.63;;;10.60;99.90;;;;;;5047267;28;20751;-84
2022/05/27 08:59:26;;;;;;;7.10;1.50;;;10.70;99.90;;;;;;5014790;28;20422;-82
2022/05/27 09:00:44;;;;;;;9.20;1.70;;;10.80;99.90;;;;;;5018496;28;20410;-84
2022/05/27 09:03:14;;;;;;;10.13;1.70;;;10.80;99.90;;;;;;5013835;28;20782;-83
2022/05/27 09:05:56;;;;;;;7.53;1.30;;;10.80;99.90;;;;;;5022361;28;20784;-83
2022/05/27 09:08:26;;;;;;;7.10;1.27;;;10.80;99.90;;;;;;5012762;28;20399;-83
2022/05/27 09:11:39;;;;;;;7.40;1.55;;;10.80;99.90;;;;;;5018803;28;20395;-84
2022/05/27 09:14:14;;;;;;;10.63;1.63;;;10.80;99.90;;;;;;5048240;28;20413;-85
2022/05/27 09:16:54;;;;;;;11.07;1.67;;;10.80;99.90;;;;;;5022287;28;20433;-85
2022/05/27 09:20:18;;;;;;;9.83;1.43;;;10.80;99.90;;;;;;5027538;28;20401;-85
2022/05/27 09:23:05;;;;;;;7.35;1.50;;;10.70;99.90;;;;;;5034914;28;20846;-85
2022/05/27 09:25:49;;;;;;;8.40;1.20;;;10.70;99.90;;;;;;5028056;28;20758;-84
2022/05/27 09:28:42;;;;;;;6.55;1.58;;;10.70;99.90;;;;;;5019363;28;20414;-84
2022/05/27 09:31:14;;;;;;;7.28;1.50;;;10.80;99.90;;;;;;5022655;28;20387;-84
2022/05/27 09:33:44;;;;;;;5.82;1.25;;;10.90;99.90;;;;;;5013546;28;20393;-82
2022/05/27 09:36:36;;;;;;;7.63;1.38;;;11.00;99.90;;;;;;5026306;28;20425;-86
2022/05/27 09:39:13;;;;;;;7.37;1.50;;;11.20;99.90;;;;;;5028384;28;20477;-85
2022/05/27 09:41:53;;;;;;;9.65;2.00;;;11.20;99.90;;;;;;5017851;28;20460;-84
2022/05/27 09:44:54;;;;;;;7.13;1.55;;;11.10;99.90;;;;;;5023404;28;20914;-85
2022/05/27 09:47:28;;;;;;;8.43;1.25;;;11.20;99.90;;;;;;5018987;28;20837;-86
2022/05/27 09:50:22;;;;;;;8.63;1.20;;;11.30;99.90;;;;;;5021005;28;20403;-83
2022/05/27 09:52:57;;;;;;;7.57;1.45;;;11.30;99.90;;;;;;5020346;28;20400;-86
2022/05/27 09:55:37;;;;;;;8.52;1.30;;;11.40;99.90;;;;;;5018797;28;20894;-84
2022/05/27 09:58:06;;;;;;;7.35;1.65;;;11.50;99.90;;;;;;5020534;28;20490;-84
2022/05/27 10:00:41;;;;;;;5.30;1.05;;;11.50;99.90;;;;;;5015352;28;20397;-84
2022/05/27 10:03:29;;;;;;;8.88;1.30;;;11.60;99.90;;;;;;5016484;28;20401;-83
2022/05/27 10:06:08;;;;;;;11.30;1.55;;;11.60;99.90;;;;;;5012576;28;20858;-83
2022/05/27 10:08:38;;;;;;;7.67;1.30;;;11.70;99.90;;;;;;5016739;28;20871;-83
2022/05/27 10:11:09;;;;;;;11.15;1.55;;;11.80;99.90;;;;;;5010538;28;20408;-84
2022/05/27 10:13:40;;;;;;;4.60;1.20;;;11.80;99.90;;;;;;5012450;28;20407;-84
2022/05/27 10:16:12;;;;;;;8.07;1.55;;;11.90;99.90;;;;;;5021071;28;20407;-84
2022/05/27 10:18:44;;;;;;;7.18;1.20;;;11.90;99.90;;;;;;5020076;28;20426;-83
2022/05/27 10:21:19;;;;;;;9.35;1.60;;;11.90;99.90;;;;;;5016986;28;20438;-83
2022/05/27 10:23:54;;;;;;;7.18;1.15;;;11.90;99.90;;;;;;5015832;28;20400;-84
2022/05/27 10:26:24;;;;;;;5.80;1.20;;;12.00;99.90;;;;;;5020196;28;20846;-83
2022/05/27 10:28:59;;;;;;;6.88;1.45;;;12.10;99.90;;;;;;5019948;28;20405;-83
2022/05/27 10:31:29;;;;;;;6.28;1.20;;;12.30;99.90;;;;;;5019477;28;20396;-83
2022/05/27 10:33:58;;;;;;;5.28;1.35;;;12.30;99.90;;;;;;5016210;28;20399;-82
2022/05/27 10:36:44;;;;;;;5.55;1.25;;;12.30;99.90;;;;;;5011030;28;20401;-84
2022/05/27 10:39:47;;;;;;;6.18;1.20;;;12.50;99.90;;;;;;5018065;28;20434;-84
2022/05/27 10:42:20;;;;;;;8.35;1.55;;;12.50;99.90;;;;;;5024757;28;20496;-83
2022/05/27 10:45:09;;;;;;;6.83;1.10;;;12.50;99.90;;;;;;5015855;28;20970;-83
2022/05/27 10:47:53;;;;;;;5.10;1.02;;;12.50;99.90;;;;;;5015978;28;20945;-83
2022/05/27 10:50:30;;;;;;;6.70;1.60;;;12.50;99.90;;;;;;5009933;28;20420;-84
2022/05/27 10:53:29;;;;;;;7.30;1.17;;;12.70;99.90;;;;;;5012505;28;20781;-82
2022/05/27 10:56:19;;;;;;;7.28;1.65;;;12.60;99.90;;;;;;5014295;28;20584;-84
2022/05/27 11:02:07;;;;;;;5.60;1.20;;;13.00;99.90;;;;;;5019677;28;20407;-83
2022/05/27 11:04:53;;;;;;;6.38;1.30;;;13.00;99.90;;;;;;5021181;28;20411;-84
2022/05/27 11:07:39;;;;;;;4.75;1.23;;;13.10;99.90;;;;;;5014318;28;20416;-86
2022/05/27 11:10:41;;;;;;;4.43;0.98;;;13.10;99.90;;;;;;5019835;28;20386;-82
2022/05/27 11:16:29;;;;;;;5.47;1.27;;;13.50;99.90;;;;;;5017115;28;20403;-88
2022/05/27 11:19:25;;;;;;;7.20;1.08;;;13.50;99.90;;;;;;5019184;28;20410;-86
2022/05/27 11:22:13;;;;;;;6.85;1.02;;;13.50;99.90;;;;;;5019983;28;20398;-87
2022/05/27 11:24:51;;;;;;;6.80;1.30;;;13.40;99.90;;;;;;5013272;27;20426;-85
2022/05/27 11:27:27;;;;;;;7.18;1.40;;;13.70;99.90;;;;;;5017716;28;20489;-87
2022/05/27 11:30:49;;;;;;;7.32;1.00;;;13.60;99.90;;;;;;5020773;27;20424;-86
2022/05/27 11:33:53;;;;;;;9.18;1.23;;;13.70;99.90;;;;;;5040363;28;20397;-89
2022/05/27 11:36:30;;;;;;;6.97;1.27;;;13.70;99.90;;;;;;5016189;28;20397;-87
2022/05/27 11:39:47;;;;;;;6.00;1.50;;;13.60;99.90;;;;;;5017124;28;20388;-86
2022/05/27 11:42:38;;;;;;;4.57;1.10;;;13.70;99.90;;;;;;5020569;28;20403;-86
2022/05/27 11:45:24;;;;;;;5.80;1.10;;;13.80;99.90;;;;;;5020238;28;20407;-87
2022/05/27 11:48:02;;;;;;;8.80;1.25;;;13.80;99.90;;;;;;5009873;28;20402;-86
2022/05/27 11:51:08;;;;;;;7.38;1.20;;;13.50;99.90;;;;;;5016443;28;20407;-86
2022/05/27 11:53:51;;;;;;;5.82;1.17;;;13.50;99.90;;;;;;5037883;28;20394;-86
2022/05/27 11:56:34;;;;;;;5.80;1.00;;;13.80;99.90;;;;;;5022539;28;20387;-86
2022/05/27 11:59:30;;;;;;;4.00;1.10;;;13.80;99.90;;;;;;5016538;28;20395;-85
2022/05/27 12:02:26;;;;;;;5.40;1.00;;;13.40;99.90;;;;;;5016877;28;20452;-86
2022/05/27 12:05:00;;;;;;;8.05;1.20;;;13.10;99.90;;;;;;5054928;28;20408;-85
2022/05/27 12:07:35;;;;;;;5.53;1.20;;;12.90;99.90;;;;;;5015864;28;20386;-86
2022/05/27 12:10:32;;;;;;;5.05;1.10;;;13.10;99.90;;;;;;5013859;28;20422;-85
2022/05/27 12:13:05;;;;;;;5.47;1.08;;;13.20;99.90;;;;;;5011804;28;20393;-86
2022/05/27 12:15:38;;;;;;;5.28;1.10;;;13.70;99.90;;;;;;5014438;28;20392;-87
2022/05/27 12:18:14;;;;;;;7.05;1.15;;;14.00;99.90;;;;;;5020497;28;20798;-86
2022/05/27 12:20:43;;;;;;;3.95;1.00;;;14.20;99.90;;;;;;5013886;28;20410;-87
2022/05/27 12:23:12;;;;;;;7.13;1.00;;;14.30;99.90;;;;;;5016442;28;20417;-86
2022/05/27 12:25:50;;;;;;;6.60;1.08;;;14.10;99.90;;;;;;5015376;28;20439;-86
2022/05/27 12:28:29;;;;;;;4.03;0.90;;;14.10;99.90;;;;;;5012841;28;20399;-86
2022/05/27 12:30:59;;;;;;;6.45;1.10;;;14.00;99.90;;;;;;5016307;28;20414;-88
2022/05/27 12:33:29;;;;;;;4.25;0.85;;;13.90;99.90;;;;;;5024243;28;20454;-87
2022/05/27 12:36:06;;;;;;;3.83;1.10;;;13.80;99.90;;;;;;5012521;28;20490;-87
2022/05/27 12:38:48;;;;;;;8.25;1.27;;;13.80;99.90;;;;;;5021522;28;20395;-86
2022/05/27 12:41:30;;;;;;;8.68;1.10;;;13.90;99.90;;;;;;5019714;28;20834;-86
2022/05/27 12:44:18;;;;;;;4.00;0.90;;;13.90;99.90;;;;;;5009045;28;20860;-88
2022/05/27 12:46:50;;;;;;;5.65;1.15;;;14.10;99.90;;;;;;5017696;28;20899;-87
2022/05/27 12:49:32;;;;;;;5.15;1.05;;;14.30;99.90;;;;;;5014636;28;20488;-87
2022/05/27 12:52:02;;;;;;;4.53;1.10;;;14.40;99.90;;;;;;5026743;28;20406;-87
2022/05/27 12:54:42;;;;;;;5.60;1.20;;;14.40;99.90;;;;;;5014554;28;20395;-87
2022/05/27 13:03:33;;;;;;;4.18;1.00;;;14.60;99.90;;;;;;5020307;28;20393;-88
2022/05/27 13:06:11;;;;;;;5.68;1.10;;;14.70;99.90;;;;;;5018724;28;20423;-87
2022/05/27 13:09:03;;;;;;;4.55;1.00;;;14.90;99.90;;;;;;5024746;28;20406;-87
2022/05/27 13:11:34;;;;;;;5.82;1.02;;;15.10;99.90;;;;;;5012446;28;20429;-87
2022/05/27 13:14:05;;;;;;;6.87;1.10;;;15.20;99.90;;;;;;5018371;28;20403;-86
2022/05/27 13:17:29;;;;;;;5.82;1.02;;;15.40;99.90;;;;;;5015016;28;20417;-86
2022/05/27 13:20:03;;;;;;;6.22;1.30;;;15.10;99.90;;;;;;5015192;28;20422;-87
2022/05/27 13:22:30;;;;;;;4.90;1.00;;;14.80;99.90;;;;;;5013346;28;20528;-88
2022/05/27 13:25:19;;;;;;;4.27;1.13;;;14.50;99.90;;;;;;5013607;28;20433;-86
2022/05/27 13:27:48;;;;;;;5.10;1.20;;;14.40;99.90;;;;;;5012277;28;20901;-89
2022/05/27 13:30:25;;;;;;;7.75;1.02;;;14.30;99.90;;;;;;5018346;28;20399;-85
2022/05/27 13:33:08;;;;;;;5.97;1.13;;;14.20;99.90;;;;;;5014299;28;20401;-87
2022/05/27 13:35:42;;;;;;;4.13;0.98;;;14.00;99.90;;;;;;5021551;28;20477;-87
2022/05/27 13:38:15;;;;;;;4.60;1.00;;;14.30;99.90;;;;;;5016123;28;20506;-87
2022/05/27 13:40:44;;;;;;;7.82;0.93;;;14.70;99.90;;;;;;5022975;28;20454;-88
2022/05/27 13:43:18;;;;;;;6.60;1.20;;;14.90;99.90;;;;;;5015042;28;20446;-87
2022/05/27 13:46:12;;;;;;;3.38;0.80;;;14.90;99.90;;;;;;5014802;28;20416;-88
2022/05/27 13:49:05;;;;;;;5.38;0.98;;;15.10;99.90;;;;;;5012450;28;20983;-86
2022/05/27 13:51:40;;;;;;;6.05;1.30;;;15.30;99.90;;;;;;5014464;28;20900;-89
2022/05/27 13:54:30;;;;;;;4.50;1.23;;;15.70;99.90;;;;;;5020461;28;20403;-88
2022/05/27 13:57:03;;;;;;;5.93;1.13;;;15.80;99.90;;;;;;5015510;28;20406;-88
2022/05/27 13:59:43;;;;;;;4.25;1.02;;;15.80;99.90;;;;;;5015552;28;20439;-87
2022/05/27 14:02:23;;;;;;;3.92;1.00;;;15.70;99.90;;;;;;5016055;28;20399;-88
2022/05/27 14:04:54;;;;;;;6.68;1.08;;;15.60;99.90;;;;;;5025158;28;20449;-90
2022/05/27 14:07:30;;;;;;;4.45;1.10;;;15.60;99.90;;;;;;5016271;28;20549;-85
2022/05/27 14:10:07;;;;;;;4.65;1.30;;;15.30;99.90;;;;;;5019359;28;20395;-84
2022/05/27 14:12:37;;;;;;;6.60;1.20;;;15.10;99.90;;;;;;5023887;28;20905;-87